Ban Gong Hu — BOEY — position and weather

sailwx.info

Track history (hours):
 
Tides and Currents Weather Stations Pressure Air Temp Water Temp Dewpoint Dewpoint Depression Visibility Wind Speed Wind Dir Waves Ship Positions

Ban Gong Hu

Last reported at 2017-Aug-18 16:36 UTC. Time now 2017-Aug-23 19:41 UTC.
Position N 01°16' E 104°06'.

Length 229 m; draft 8.5 m.

Type: Tanker. MMSI: 412371000.

Date/timePositionNaut miles runAvg speedWind from/ knotsBaromVisibWave heightAir tempDewpointWater temp
2017-Aug-18 16:36N 01°16' E 104°06'413.6
2017-Aug-18 16:18N 01°15' E 104°02'3 9.5
2017-Aug-18 15:59N 01°15' E 103°59'2 5.2
2017-Aug-18 15:30N 01°17' E 103°58'0 0.1
2017-Aug-18 14:55N 01°17' E 103°58'0 0.0
2017-Aug-18 13:46N 01°17' E 103°58'0 0.0
2017-Aug-18 13:25N 01°17' E 103°58'0 0.2
2017-Aug-18 12:49N 01°17' E 103°57'0 0.0
2017-Aug-18 09:58N 01°17' E 103°57'0 0.0
2017-Aug-18 08:34N 01°17' E 103°57'0 0.1
2017-Aug-18 08:19N 01°17' E 103°57'0 0.0
2017-Aug-18 06:55N 01°17' E 103°57'0 0.0
2017-Aug-18 06:25N 01°17' E 103°57'0 0.0
2017-Aug-18 05:58N 01°17' E 103°57'0 0.0
2017-Aug-18 05:19N 01°17' E 103°57'0 0.0
2017-Aug-18 04:55N 01°17' E 103°57'0 0.0
2017-Aug-18 04:31N 01°17' E 103°57'0 0.0
2017-Aug-18 03:57N 01°17' E 103°57'0 0.0
2017-Aug-18 03:30N 01°17' E 103°57'0 0.1
2017-Aug-18 02:55N 01°17' E 103°57'1 3.1
2017-Aug-18 02:31N 01°16' E 103°57'1 2.2
2017-Aug-18 02:01N 01°15' E 103°58'2 4.1
2017-Aug-18 01:30N 01°16' E 103°60'2 4.9
2017-Aug-18 01:00N 01°16' E 104°02'3 6.1
2017-Aug-18 00:30N 01°15' E 103°59'4 8.6
2017-Aug-18 00:00N 01°13' E 103°56'5 9.4
2017-Aug-17 23:30N 01°11' E 103°51'4 8.8
2017-Aug-17 23:01N 01°09' E 103°47'4 8.9
2017-Aug-17 22:31N 01°06' E 103°44'4 8.4
2017-Aug-17 22:00N 01°04' E 103°41'4 8.4
2017-Aug-17 21:30N 01°04' E 103°36'5 9.3
2017-Aug-17 21:01N 01°07' E 103°33'5 9.5
2017-Aug-17 20:30N 01°09' E 103°28'510.3
2017-Aug-17 19:58N 01°12' E 103°24'  
Track history (hours):
 
Tides and Currents Weather Stations Pressure Air Temp Water Temp Dewpoint Dewpoint Depression Visibility Wind Speed Wind Dir Waves Ship Positions

Ban Gong Hu

Last reported at 2017-Aug-18 16:36 UTC. Time now 2017-Aug-23 19:41 UTC.
Position N 01°16' E 104°06'.

Length 229 m; draft 8.5 m.

Type: Tanker. MMSI: 412371000.

Date/timePositionNaut miles runAvg speedWind from/ knotsBaromVisibWave heightAir tempDewpointWater temp
2017-Aug-18 16:36N 01°16' E 104°06'413.6
2017-Aug-18 16:18N 01°15' E 104°02'3 9.5
2017-Aug-18 15:59N 01°15' E 103°59'2 5.2
2017-Aug-18 15:30N 01°17' E 103°58'0 0.1
2017-Aug-18 14:55N 01°17' E 103°58'0 0.0
2017-Aug-18 13:46N 01°17' E 103°58'0 0.0
2017-Aug-18 13:25N 01°17' E 103°58'0 0.2
2017-Aug-18 12:49N 01°17' E 103°57'0 0.0
2017-Aug-18 09:58N 01°17' E 103°57'0 0.0
2017-Aug-18 08:34N 01°17' E 103°57'0 0.1
2017-Aug-18 08:19N 01°17' E 103°57'0 0.0
2017-Aug-18 06:55N 01°17' E 103°57'0 0.0
2017-Aug-18 06:25N 01°17' E 103°57'0 0.0
2017-Aug-18 05:58N 01°17' E 103°57'0 0.0
2017-Aug-18 05:19N 01°17' E 103°57'0 0.0
2017-Aug-18 04:55N 01°17' E 103°57'0 0.0
2017-Aug-18 04:31N 01°17' E 103°57'0 0.0
2017-Aug-18 03:57N 01°17' E 103°57'0 0.0
2017-Aug-18 03:30N 01°17' E 103°57'0 0.1
2017-Aug-18 02:55N 01°17' E 103°57'1 3.1
2017-Aug-18 02:31N 01°16' E 103°57'1 2.2
2017-Aug-18 02:01N 01°15' E 103°58'2 4.1
2017-Aug-18 01:30N 01°16' E 103°60'2 4.9
2017-Aug-18 01:00N 01°16' E 104°02'3 6.1
2017-Aug-18 00:30N 01°15' E 103°59'4 8.6
2017-Aug-18 00:00N 01°13' E 103°56'5 9.4
2017-Aug-17 23:30N 01°11' E 103°51'4 8.8
2017-Aug-17 23:01N 01°09' E 103°47'4 8.9
2017-Aug-17 22:31N 01°06' E 103°44'4 8.4
2017-Aug-17 22:00N 01°04' E 103°41'4 8.4
2017-Aug-17 21:30N 01°04' E 103°36'5 9.3
2017-Aug-17 21:01N 01°07' E 103°33'5 9.5
2017-Aug-17 20:30N 01°09' E 103°28'510.3
2017-Aug-17 19:58N 01°12' E 103°24'  

Dump ship's entire track history